Time;durP1;ratioP1;P1;durP2;ratioP2;P2;SDS_P1;SDS_P2;PMS_P1;PMS_P2;Temp;Humidity;BMP_temperature;BMP_pressure;BME280_temperature;BME280_humidity;BME280_pressure;Samples;Min_cycle;Max_cycle;Signal;HPM_P1;HPM_P2
2022/09/13 00:01:01;;;;;;;;;;;16.80;63.60;;;;;;5116888;28;19904;-70
2022/09/13 00:03:27;;;;;;;;;;;16.80;63.60;;;;;;5098558;28;19903;-70
2022/09/13 00:05:52;;;;;;;;;;;16.80;63.70;;;;;;5116787;28;19904;-70
2022/09/13 00:08:18;;;;;;;;;;;16.80;63.70;;;;;;5116522;28;19965;-70
2022/09/13 00:10:44;;;;;;;;;;;16.80;63.80;;;;;;5116646;27;20355;-70
2022/09/13 00:13:12;;;;;;;;;;;16.80;63.80;;;;;;5116632;28;20381;-70
2022/09/13 00:15:42;;;;;;;;;;;16.70;63.80;;;;;;5116574;28;20347;-70
2022/09/13 00:18:08;;;;;;;;;;;16.70;63.90;;;;;;5098291;28;19911;-70
2022/09/13 00:20:34;;;;;;;;;;;16.70;63.90;;;;;;5098216;28;19903;-70
2022/09/13 00:23:00;;;;;;;;;;;16.70;64.00;;;;;;5116384;28;19904;-70
2022/09/13 00:25:25;;;;;;;;;;;16.70;64.00;;;;;;5116338;28;19947;-70
2022/09/13 00:27:51;;;;;;;;;;;16.60;64.00;;;;;;5116383;28;19904;-70
2022/09/13 00:30:16;;;;;;;;;;;16.60;64.00;;;;;;5116215;28;19908;-70
2022/09/13 00:32:42;;;;;;;;;;;16.60;64.20;;;;;;5116087;28;19922;-70
2022/09/13 00:35:08;;;;;;;;;;;16.60;64.30;;;;;;5115421;27;20604;-70
2022/09/13 00:37:33;;;;;;;;;;;16.60;64.20;;;;;;5136666;27;20308;-70
2022/09/13 00:39:59;;;;;;;;;;;16.60;64.20;;;;;;5118283;27;19903;-70
2022/09/13 00:42:26;;;;;;;;;;;16.50;64.20;;;;;;5119254;27;20441;-70
2022/09/13 00:44:54;;;;;;;;;;;16.50;64.20;;;;;;5116036;28;19912;-70
2022/09/13 00:47:23;;;;;;;;;;;16.50;64.30;;;;;;5116000;28;19904;-70
2022/09/13 00:49:51;;;;;;;;;;;16.50;64.30;;;;;;5115887;28;19908;-70
2022/09/13 00:52:19;;;;;;;;;;;16.50;64.30;;;;;;5115940;28;19904;-70
2022/09/13 00:54:49;;;;;;;;;;;16.40;64.30;;;;;;5115888;28;19904;-70
2022/09/13 00:57:15;;;;;;;;;;;16.40;64.30;;;;;;5115767;28;19903;-70
2022/09/13 00:59:42;;;;;;;;;;;16.40;64.40;;;;;;5115783;28;19943;-70
2022/09/13 01:02:09;;;;;;;;;;;16.40;64.40;;;;;;5115356;28;20370;-70
2022/09/13 01:04:35;;;;;;;;;;;16.30;64.40;;;;;;5115410;27;20382;-70
2022/09/13 01:07:03;;;;;;;;;;;16.30;64.50;;;;;;5115610;28;20269;-70
2022/09/13 01:09:32;;;;;;;;;;;16.30;64.60;;;;;;5097045;28;19911;-70
2022/09/13 01:12:07;;;;;;;;;;;16.30;64.70;;;;;;5097057;28;19903;-70
2022/09/13 01:14:33;;;;;;;;;;;16.30;64.70;;;;;;5115319;28;19952;-70
2022/09/13 01:16:59;;;;;;;;;;;16.20;64.70;;;;;;5115261;28;20282;-70
2022/09/13 01:19:25;;;;;;;;;;;16.20;64.70;;;;;;5115227;28;19947;-70
2022/09/13 01:22:09;;;;;;;;;;;16.20;64.80;;;;;;5115179;28;19943;-70
2022/09/13 01:24:37;;;;;;;;;;;16.10;64.80;;;;;;5115051;28;20251;-70
2022/09/13 01:27:06;;;;;;;;;;;16.10;64.90;;;;;;5096770;28;19904;-70
2022/09/13 01:29:58;;;;;;;;;;;16.10;65.00;;;;;;5114870;28;19907;-70
2022/09/13 01:32:40;;;;;;;;;;;16.10;65.00;;;;;;5109681;28;19923;-70
2022/09/13 01:35:06;;;;;;;;;;;16.10;65.10;;;;;;5114795;27;19908;-70
2022/09/13 01:37:40;;;;;;;;;;;16.10;65.10;;;;;;5114848;28;20422;-70
2022/09/13 01:40:19;;;;;;;;;;;16.00;65.10;;;;;;5096492;28;19946;-70
2022/09/13 01:42:48;;;;;;;;;;;16.00;65.20;;;;;;5115105;28;19904;-70
2022/09/13 01:45:20;;;;;;;;;;;16.00;65.30;;;;;;5114680;28;19903;-70
2022/09/13 01:47:54;;;;;;;;;;;16.00;65.40;;;;;;5114705;28;20324;-70
2022/09/13 01:50:41;;;;;;;;;;;16.00;65.40;;;;;;5114531;28;19907;-70
2022/09/13 01:53:22;;;;;;;;;;;16.00;65.40;;;;;;5113947;28;19994;-70
2022/09/13 01:55:50;;;;;;;;;;;16.00;65.50;;;;;;5096219;28;19943;-70
2022/09/13 01:58:21;;;;;;;;;;;15.90;65.40;;;;;;5114493;28;19910;-70
2022/09/13 02:01:06;;;;;;;;;;;15.90;65.50;;;;;;5114451;28;19951;-70
2022/09/13 02:03:42;;;;;;;;;;;15.90;65.50;;;;;;5096049;28;19915;-70
2022/09/13 02:06:10;;;;;;;;;;;15.90;65.60;;;;;;5114288;28;19904;-70
2022/09/13 02:08:39;;;;;;;;;;;15.90;65.60;;;;;;5114238;28;19907;-70
2022/09/13 02:11:04;;;;;;;;;;;15.90;65.60;;;;;;5114174;28;19903;-70
2022/09/13 02:13:34;;;;;;;;;;;15.80;65.60;;;;;;5113372;28;19914;-70
2022/09/13 02:16:04;;;;;;;;;;;15.80;65.70;;;;;;5114181;28;19904;-70
2022/09/13 02:18:33;;;;;;;;;;;15.80;65.80;;;;;;5095844;28;19912;-70
2022/09/13 02:21:07;;;;;;;;;;;15.80;65.80;;;;;;5114015;28;20228;-70
2022/09/13 02:23:36;;;;;;;;;;;15.80;65.70;;;;;;5114156;28;20377;-70
2022/09/13 02:26:03;;;;;;;;;;;15.80;65.80;;;;;;5114038;28;19903;-70
2022/09/13 02:28:35;;;;;;;;;;;15.80;65.80;;;;;;5113923;28;19918;-70
2022/09/13 02:31:02;;;;;;;;;;;15.70;65.80;;;;;;5095965;28;20301;-70
2022/09/13 02:33:30;;;;;;;;;;;15.70;65.90;;;;;;5091972;28;19969;-70
2022/09/13 02:36:05;;;;;;;;;;;15.70;65.90;;;;;;5093494;28;19908;-70
2022/09/13 02:38:33;;;;;;;;;;;15.70;66.00;;;;;;5093300;28;19904;-70
2022/09/13 02:41:02;;;;;;;;;;;15.70;66.00;;;;;;5093508;28;19935;-70
2022/09/13 02:43:36;;;;;;;;;;;15.70;66.10;;;;;;5093430;28;19910;-70
2022/09/13 02:46:02;;;;;;;;;;;15.70;66.10;;;;;;5092189;28;20281;-70
2022/09/13 02:48:48;;;;;;;;;;;15.70;66.10;;;;;;5093333;28;19908;-70
2022/09/13 02:51:23;;;;;;;;;;;15.70;66.20;;;;;;5093279;28;20278;-70
2022/09/13 02:54:07;;;;;;;;;;;15.60;66.20;;;;;;5093411;28;19908;-70
2022/09/13 02:56:51;;;;;;;;;;;15.60;66.20;;;;;;5093389;28;19947;-70
2022/09/13 02:59:19;;;;;;;;;;;15.60;66.20;;;;;;5093346;28;19922;-70
2022/09/13 03:01:56;;;;;;;;;;;15.60;66.30;;;;;;5093317;28;20251;-70
2022/09/13 03:04:22;;;;;;;;;;;15.60;66.30;;;;;;5093165;28;19916;-70
2022/09/13 03:06:49;;;;;;;;;;;15.60;66.40;;;;;;5093247;28;19966;-70
2022/09/13 03:09:15;;;;;;;;;;;15.60;66.40;;;;;;5091852;28;19907;-69
2022/09/13 03:11:56;;;;;;;;;;;15.60;66.40;;;;;;5093078;28;19908;-70
2022/09/13 03:14:33;;;;;;;;;;;15.60;66.50;;;;;;5093499;28;20275;-70
2022/09/13 03:17:13;;;;;;;;;;;15.50;66.50;;;;;;5093210;28;19915;-70
2022/09/13 03:19:47;;;;;;;;;;;15.60;67.40;;;;;;5093071;28;19914;-70
2022/09/13 03:22:16;;;;;;;;;;;15.50;66.70;;;;;;5093096;28;20335;-70
2022/09/13 03:24:50;;;;;;;;;;;15.50;66.70;;;;;;5095365;28;19957;-70
2022/09/13 03:27:19;;;;;;;;;;;15.50;66.80;;;;;;5097017;28;20351;-70
2022/09/13 03:29:50;;;;;;;;;;;15.50;66.90;;;;;;5096842;28;19914;-70
2022/09/13 03:32:16;;;;;;;;;;;15.50;66.80;;;;;;5095479;28;19915;-70
2022/09/13 03:34:50;;;;;;;;;;;15.50;66.80;;;;;;5096803;28;20446;-70
2022/09/13 03:37:28;;;;;;;;;;;15.50;66.80;;;;;;5096804;28;19905;-70
2022/09/13 03:40:08;;;;;;;;;;;15.50;67.00;;;;;;5096715;28;19904;-69
2022/09/13 03:42:40;;;;;;;;;;;15.40;66.90;;;;;;5096724;28;19939;-70
2022/09/13 03:45:07;;;;;;;;;;;15.40;66.90;;;;;;5096752;28;19904;-70
2022/09/13 03:47:35;;;;;;;;;;;15.40;66.90;;;;;;5096538;28;20316;-70
2022/09/13 03:50:01;;;;;;;;;;;15.40;67.00;;;;;;5096501;28;19914;-70
2022/09/13 03:52:27;;;;;;;;;;;15.40;67.00;;;;;;5096399;28;19991;-70
2022/09/13 03:54:55;;;;;;;;;;;15.40;67.00;;;;;;5097796;28;20405;-70
2022/09/13 03:57:21;;;;;;;;;;;15.40;67.10;;;;;;5115530;28;19904;-70
2022/09/13 03:59:48;;;;;;;;;;;15.40;67.10;;;;;;5116747;28;19910;-70
2022/09/13 04:02:14;;;;;;;;;;;15.40;67.10;;;;;;5116739;28;19956;-70
2022/09/13 04:04:40;;;;;;;;;;;15.30;67.10;;;;;;5116613;28;20324;-70
2022/09/13 04:07:07;;;;;;;;;;;15.30;67.20;;;;;;5116569;28;19964;-70
2022/09/13 04:09:34;;;;;;;;;;;15.30;67.20;;;;;;5116408;28;19907;-70
2022/09/13 04:12:00;;;;;;;;;;;15.30;67.30;;;;;;5116478;28;19981;-70
2022/09/13 04:14:25;;;;;;;;;;;15.30;67.30;;;;;;5116530;27;19951;-72
2022/09/13 04:16:52;;;;;;;;;;;15.30;67.30;;;;;;5116399;28;19903;-69
2022/09/13 04:19:18;;;;;;;;;;;15.20;67.20;;;;;;5116311;28;20332;-69
2022/09/13 04:21:45;;;;;;;;;;;15.30;67.30;;;;;;5116353;28;19903;-69
2022/09/13 04:24:12;;;;;;;;;;;15.20;67.40;;;;;;5116099;28;19923;-69
2022/09/13 04:26:37;;;;;;;;;;;15.20;67.50;;;;;;5097281;28;19946;-70
2022/09/13 04:29:03;;;;;;;;;;;15.20;67.50;;;;;;5095722;28;19955;-69
2022/09/13 04:31:29;;;;;;;;;;;15.20;68.30;;;;;;5095750;28;19908;-69
2022/09/13 04:33:54;;;;;;;;;;;15.20;67.60;;;;;;5114816;28;20389;-69
2022/09/13 04:36:21;;;;;;;;;;;15.20;67.70;;;;;;5115039;28;19908;-69
2022/09/13 04:38:47;;;;;;;;;;;15.20;67.70;;;;;;5115949;28;19904;-69
2022/09/13 04:41:12;;;;;;;;;;;15.20;67.70;;;;;;5116036;28;19948;-69
2022/09/13 04:43:38;;;;;;;;;;;15.20;67.70;;;;;;5115868;28;19915;-69
2022/09/13 04:46:04;;;;;;;;;;;15.20;67.70;;;;;;5097366;28;20346;-69
2022/09/13 04:48:29;;;;;;;;;;;15.20;67.70;;;;;;5115637;28;19926;-69
2022/09/13 04:51:03;;;;;;;;;;;15.20;67.70;;;;;;5115722;28;19904;-69
2022/09/13 04:53:29;;;;;;;;;;;15.20;67.70;;;;;;5097412;28;20003;-69
2022/09/13 04:56:01;;;;;;;;;;;15.20;67.80;;;;;;5115374;27;19954;-69
2022/09/13 04:58:27;;;;;;;;;;;15.20;67.90;;;;;;5115492;28;19908;-69
2022/09/13 05:00:55;;;;;;;;;;;15.20;67.90;;;;;;5115500;28;19904;-69
2022/09/13 05:03:21;;;;;;;;;;;15.20;68.00;;;;;;5115416;28;19990;-69
2022/09/13 05:05:47;;;;;;;;;;;15.20;68.10;;;;;;5115352;28;19904;-69
2022/09/13 05:08:12;;;;;;;;;;;15.30;68.20;;;;;;5115228;28;19910;-69
2022/09/13 05:10:38;;;;;;;;;;;15.30;68.30;;;;;;5096903;28;19908;-69
2022/09/13 05:13:04;;;;;;;;;;;15.30;68.30;;;;;;5115169;28;20010;-69
2022/09/13 05:15:29;;;;;;;;;;;15.30;68.40;;;;;;5115150;28;19949;-69
2022/09/13 05:17:55;;;;;;;;;;;15.30;68.60;;;;;;5115093;28;19904;-69
2022/09/13 05:20:20;;;;;;;;;;;15.40;68.70;;;;;;5115133;28;19903;-69
2022/09/13 05:22:46;;;;;;;;;;;15.40;68.70;;;;;;5114996;28;19999;-69
2022/09/13 05:25:12;;;;;;;;;;;15.40;68.70;;;;;;5114740;27;20308;-69
2022/09/13 05:27:38;;;;;;;;;;;15.40;68.70;;;;;;5115009;28;20358;-69
2022/09/13 05:30:04;;;;;;;;;;;15.40;68.80;;;;;;5114909;28;19978;-69
2022/09/13 05:32:30;;;;;;;;;;;15.50;68.90;;;;;;5114567;28;19916;-69
2022/09/13 05:34:56;;;;;;;;;;;15.50;68.80;;;;;;5096365;28;19987;-70
2022/09/13 05:37:21;;;;;;;;;;;15.50;68.90;;;;;;5114827;28;19998;-69
2022/09/13 05:39:47;;;;;;;;;;;15.60;68.90;;;;;;5096395;28;19911;-69
2022/09/13 05:42:12;;;;;;;;;;;15.60;69.00;;;;;;5114697;28;20370;-69
2022/09/13 05:44:38;;;;;;;;;;;15.60;68.90;;;;;;5114624;28;20290;-69
2022/09/13 05:47:04;;;;;;;;;;;15.70;69.10;;;;;;5114493;28;19935;-69
2022/09/13 05:49:30;;;;;;;;;;;15.70;69.10;;;;;;5114203;28;19998;-69
2022/09/13 05:51:55;;;;;;;;;;;15.70;69.20;;;;;;5114332;28;20421;-70
2022/09/13 05:54:21;;;;;;;;;;;15.80;69.30;;;;;;5114399;28;20379;-70
2022/09/13 05:56:46;;;;;;;;;;;15.80;69.30;;;;;;5114314;27;19914;-69
2022/09/13 05:59:13;;;;;;;;;;;15.80;69.30;;;;;;5114357;28;19995;-69
2022/09/13 06:01:39;;;;;;;;;;;15.90;69.50;;;;;;5096083;28;19998;-69
2022/09/13 06:04:05;;;;;;;;;;;15.90;69.60;;;;;;5114294;28;19994;-70
2022/09/13 06:06:30;;;;;;;;;;;16.00;69.70;;;;;;5096015;28;20244;-70
2022/09/13 06:08:56;;;;;;;;;;;16.10;69.80;;;;;;5095950;28;19961;-70
2022/09/13 06:11:22;;;;;;;;;;;16.10;69.90;;;;;;5114216;28;19994;-70
2022/09/13 06:13:49;;;;;;;;;;;16.20;70.00;;;;;;5114258;28;19918;-69
2022/09/13 06:16:15;;;;;;;;;;;16.20;70.00;;;;;;5096299;28;20244;-70
2022/09/13 06:18:41;;;;;;;;;;;16.30;69.90;;;;;;5114210;28;19910;-70
2022/09/13 06:21:12;;;;;;;;;;;16.40;69.90;;;;;;5114153;28;19904;-70
2022/09/13 06:23:38;;;;;;;;;;;16.50;69.80;;;;;;5095839;28;19949;-70
2022/09/13 06:26:05;;;;;;;;;;;16.50;69.70;;;;;;5113909;27;20382;-70
2022/09/13 06:28:31;;;;;;;;;;;16.60;69.70;;;;;;5114024;28;20037;-70
2022/09/13 06:31:03;;;;;;;;;;;16.70;69.70;;;;;;5113990;28;19990;-70
2022/09/13 06:33:29;;;;;;;;;;;16.80;69.70;;;;;;5119381;27;20263;-70
2022/09/13 06:35:58;;;;;;;;;;;16.90;69.60;;;;;;5134587;27;19903;-70
2022/09/13 06:38:24;;;;;;;;;;;17.00;69.60;;;;;;5134503;27;19903;-70
2022/09/13 06:40:58;;;;;;;;;;;17.00;69.50;;;;;;5116084;28;19903;-70
2022/09/13 06:43:23;;;;;;;;;;;17.10;69.40;;;;;;5134469;27;19903;-70
2022/09/13 06:45:49;;;;;;;;;;;17.20;70.10;;;;;;5134387;27;19910;-70
2022/09/13 06:48:15;;;;;;;;;;;17.30;69.40;;;;;;5134460;28;19998;-70
2022/09/13 06:50:40;;;;;;;;;;;17.40;69.30;;;;;;5134373;28;19914;-70
2022/09/13 06:53:06;;;;;;;;;;;17.50;69.20;;;;;;5115905;28;20383;-70
2022/09/13 06:55:32;;;;;;;;;;;17.60;69.00;;;;;;5123455;28;19914;-70
2022/09/13 06:57:57;;;;;;;;;;;17.70;68.90;;;;;;5095316;28;19950;-70
2022/09/13 07:00:23;;;;;;;;;;;17.70;68.70;;;;;;5117429;28;19933;-71
2022/09/13 07:02:51;;;;;;;;;;;17.80;68.60;;;;;;5117917;28;19961;-70
2022/09/13 07:05:19;;;;;;;;;;;17.90;68.60;;;;;;5099609;28;19903;-70
2022/09/13 07:07:45;;;;;;;;;;;18.00;68.50;;;;;;5117955;28;19904;-70
2022/09/13 07:10:10;;;;;;;;;;;18.10;68.40;;;;;;5117671;28;20006;-71
2022/09/13 07:12:36;;;;;;;;;;;18.10;68.20;;;;;;5117751;28;19908;-70
2022/09/13 07:15:02;;;;;;;;;;;18.20;68.20;;;;;;5117753;28;19903;-71
2022/09/13 07:17:27;;;;;;;;;;;18.30;68.10;;;;;;5117620;28;19944;-71
2022/09/13 07:19:53;;;;;;;;;;;18.30;68.00;;;;;;5099389;28;20003;-71
2022/09/13 07:22:18;;;;;;;;;;;18.40;67.90;;;;;;5117694;28;19915;-71
2022/09/13 07:24:44;;;;;;;;;;;18.50;67.90;;;;;;5117385;28;19987;-71
2022/09/13 07:27:10;;;;;;;;;;;18.60;67.70;;;;;;5117531;28;19908;-71
2022/09/13 07:29:35;;;;;;;;;;;18.70;67.50;;;;;;5117419;28;20006;-71
2022/09/13 07:32:01;;;;;;;;;;;18.80;67.20;;;;;;5117099;28;19916;-71
2022/09/13 07:34:26;;;;;;;;;;;18.80;67.10;;;;;;5117277;28;19911;-71
2022/09/13 07:36:52;;;;;;;;;;;18.90;67.20;;;;;;5117302;28;20351;-71
2022/09/13 07:39:18;;;;;;;;;;;19.00;67.00;;;;;;5117187;28;19914;-71
2022/09/13 07:41:45;;;;;;;;;;;19.10;66.90;;;;;;5117197;28;19935;-71
2022/09/13 07:44:11;;;;;;;;;;;19.20;66.70;;;;;;5098890;28;19904;-71
2022/09/13 07:46:42;;;;;;;;;;;19.40;66.70;;;;;;5117127;28;19915;-71
2022/09/13 07:49:08;;;;;;;;;;;19.50;66.30;;;;;;5098776;28;20393;-71
2022/09/13 07:51:35;;;;;;;;;;;19.60;65.90;;;;;;5098775;28;19903;-71
2022/09/13 07:54:03;;;;;;;;;;;19.70;65.20;;;;;;5098665;28;19904;-71
2022/09/13 07:56:32;;;;;;;;;;;19.70;64.80;;;;;;5116826;28;20267;-71
2022/09/13 07:58:59;;;;;;;;;;;19.90;64.70;;;;;;5116927;28;19903;-71
2022/09/13 08:01:25;;;;;;;;;;;19.90;64.40;;;;;;5098586;28;19903;-71
2022/09/13 08:03:55;;;;;;;;;;;20.00;63.90;;;;;;5116861;28;19910;-71
2022/09/13 08:06:21;;;;;;;;;;;20.00;64.00;;;;;;5098449;28;20382;-71
2022/09/13 08:08:46;;;;;;;;;;;20.10;64.10;;;;;;5116713;28;19908;-71
2022/09/13 08:11:18;;;;;;;;;;;20.20;64.00;;;;;;5096919;28;19911;-72
2022/09/13 08:13:44;;;;;;;;;;;20.30;63.80;;;;;;5116689;28;20033;-71
2022/09/13 08:16:10;;;;;;;;;;;20.40;63.10;;;;;;5116580;28;19923;-70
2022/09/13 08:18:36;;;;;;;;;;;20.40;63.00;;;;;;5098219;28;19919;-70
2022/09/13 08:21:01;;;;;;;;;;;20.50;62.80;;;;;;5098242;28;20377;-71
2022/09/13 08:23:27;;;;;;;;;;;20.60;62.70;;;;;;5116446;28;19926;-71
2022/09/13 08:25:53;;;;;;;;;;;20.70;62.80;;;;;;5097977;28;19952;-71
2022/09/13 08:28:22;;;;;;;;;;;20.80;62.40;;;;;;5116350;28;19907;-71
2022/09/13 08:30:48;;;;;;;;;;;20.80;62.00;;;;;;5116259;28;19933;-71
2022/09/13 08:33:14;;;;;;;;;;;20.90;61.80;;;;;;5097776;28;19923;-71
2022/09/13 08:35:39;;;;;;;;;;;20.90;61.40;;;;;;5116209;28;19903;-71
2022/09/13 08:38:06;;;;;;;;;;;21.00;61.20;;;;;;5097800;28;19904;-71
2022/09/13 08:40:37;;;;;;;;;;;21.00;61.20;;;;;;5116099;28;19910;-71
2022/09/13 08:43:07;;;;;;;;;;;21.00;61.20;;;;;;5116078;28;20002;-71
2022/09/13 08:45:32;;;;;;;;;;;21.10;61.00;;;;;;5097770;28;19904;-71
2022/09/13 08:48:01;;;;;;;;;;;21.10;61.10;;;;;;5097768;28;19947;-71
2022/09/13 08:50:29;;;;;;;;;;;21.10;61.10;;;;;;5115888;28;19908;-71
2022/09/13 08:53:03;;;;;;;;;;;21.20;60.90;;;;;;5097519;28;20355;-71
2022/09/13 08:55:30;;;;;;;;;;;21.30;60.80;;;;;;5097472;28;20386;-71
2022/09/13 08:58:02;;;;;;;;;;;21.30;60.40;;;;;;5115791;28;20369;-71
2022/09/13 09:00:33;;;;;;;;;;;21.30;60.40;;;;;;5115806;28;19950;-71
2022/09/13 09:03:17;;;;;;;;;;;21.40;60.50;;;;;;5115581;28;19904;-71
2022/09/13 09:05:47;;;;;;;;;;;21.40;59.90;;;;;;5115517;28;20359;-71
2022/09/13 09:08:13;;;;;;;;;;;21.50;60.10;;;;;;5115601;28;19908;-71
2022/09/13 09:10:45;;;;;;;;;;;21.60;60.20;;;;;;5115421;28;19956;-71
2022/09/13 09:13:18;;;;;;;;;;;21.70;60.00;;;;;;5115548;28;19904;-71
2022/09/13 09:15:46;;;;;;;;;;;21.70;60.00;;;;;;5097176;28;20311;-71
2022/09/13 09:18:17;;;;;;;;;;;21.80;59.70;;;;;;5115410;28;19908;-71
2022/09/13 09:20:50;;;;;;;;;;;21.90;59.30;;;;;;5115351;28;20278;-71
2022/09/13 09:23:18;;;;;;;;;;;21.90;59.10;;;;;;5114914;28;19911;-71
2022/09/13 09:25:44;;;;;;;;;;;21.90;59.10;;;;;;5115077;28;19904;-71
2022/09/13 09:28:14;;;;;;;;;;;22.00;59.10;;;;;;5115007;27;20259;-70
2022/09/13 09:30:45;;;;;;;;;;;22.10;59.10;;;;;;5115059;28;19907;-70
2022/09/13 09:33:20;;;;;;;;;;;22.10;59.00;;;;;;5096587;28;19951;-71
2022/09/13 09:36:18;;;;;;;;;;;22.20;59.00;;;;;;5096559;28;20424;-71
2022/09/13 09:38:43;;;;;;;;;;;22.20;58.90;;;;;;5052091;28;19905;-71
2022/09/13 09:41:25;;;;;;;;;;;22.30;58.70;;;;;;5052224;28;19912;-71
2022/09/13 09:44:00;;;;;;;;;;;22.30;58.60;;;;;;5035236;28;19959;-71
2022/09/13 09:46:29;;;;;;;;;;;22.40;58.50;;;;;;5051973;28;19905;-71
2022/09/13 09:48:58;;;;;;;;;;;22.50;58.20;;;;;;5051981;28;19909;-71
2022/09/13 09:51:25;;;;;;;;;;;22.50;58.30;;;;;;5052038;28;19905;-71
2022/09/13 09:53:54;;;;;;;;;;;22.60;58.00;;;;;;5051790;28;19904;-71
2022/09/13 09:56:24;;;;;;;;;;;22.70;58.10;;;;;;5034766;28;19912;-71
2022/09/13 09:58:52;;;;;;;;;;;22.70;57.90;;;;;;5035135;28;20393;-71
2022/09/13 10:01:19;;;;;;;;;;;22.80;57.90;;;;;;5035073;28;20296;-71
2022/09/13 10:04:08;;;;;;;;;;;22.80;57.70;;;;;;5051581;28;19905;-71
2022/09/13 10:06:34;;;;;;;;;;;22.90;57.80;;;;;;5041039;28;19948;-71
2022/09/13 10:09:01;;;;;;;;;;;22.90;57.40;;;;;;5051444;28;19909;-71
2022/09/13 10:11:47;;;;;;;;;;;23.00;57.30;;;;;;5051555;28;20345;-71
2022/09/13 10:14:26;;;;;;;;;;;23.00;57.10;;;;;;5090757;27;20369;-71
2022/09/13 10:17:04;;;;;;;;;;;23.10;57.10;;;;;;5134831;27;19904;-71
2022/09/13 10:19:30;;;;;;;;;;;23.10;56.70;;;;;;5134809;27;19981;-71
2022/09/13 10:22:09;;;;;;;;;;;23.20;56.60;;;;;;5134846;27;19998;-71
2022/09/13 10:24:34;;;;;;;;;;;23.30;56.40;;;;;;5134396;27;19904;-71
2022/09/13 10:27:02;;;;;;;;;;;23.30;56.30;;;;;;5114336;28;19910;-71
2022/09/13 10:29:29;;;;;;;;;;;23.40;56.30;;;;;;5113997;28;19908;-71
2022/09/13 10:31:57;;;;;;;;;;;23.50;56.10;;;;;;5095488;28;19903;-71
2022/09/13 10:34:27;;;;;;;;;;;23.60;55.80;;;;;;5094958;28;19910;-71
2022/09/13 10:37:01;;;;;;;;;;;23.70;55.90;;;;;;5113697;28;19904;-71
2022/09/13 10:39:28;;;;;;;;;;;23.70;55.70;;;;;;5095246;28;19953;-71
2022/09/13 10:41:55;;;;;;;;;;;23.80;55.30;;;;;;5113672;28;19950;-71
2022/09/13 10:44:27;;;;;;;;;;;23.80;55.20;;;;;;5113442;28;19904;-71
2022/09/13 10:46:53;;;;;;;;;;;23.80;55.30;;;;;;5113590;28;19931;-72
2022/09/13 10:49:42;;;;;;;;;;;23.90;55.30;;;;;;5095055;28;19954;-71
2022/09/13 10:52:23;;;;;;;;;;;23.90;55.30;;;;;;5084467;28;19904;-71
2022/09/13 10:54:49;;;;;;;;;;;24.00;55.20;;;;;;5113425;28;19908;-71
2022/09/13 10:57:34;;;;;;;;;;;24.00;55.00;;;;;;5113616;28;19994;-71
2022/09/13 11:00:01;;;;;;;;;;;24.00;54.90;;;;;;5113508;28;19965;-71
2022/09/13 11:02:26;;;;;;;;;;;24.00;54.70;;;;;;5113391;28;19986;-71
2022/09/13 11:04:55;;;;;;;;;;;24.10;54.40;;;;;;5113516;28;19999;-71
2022/09/13 11:07:20;;;;;;;;;;;24.10;54.40;;;;;;5113463;28;19910;-71
2022/09/13 11:10:05;;;;;;;;;;;24.10;55.00;;;;;;5113406;28;20286;-71
2022/09/13 11:12:30;;;;;;;;;;;24.20;54.40;;;;;;5113272;28;19907;-71
2022/09/13 11:14:56;;;;;;;;;;;24.20;54.20;;;;;;5113302;28;20259;-71
2022/09/13 11:17:34;;;;;;;;;;;24.20;54.00;;;;;;5095071;28;19903;-71
2022/09/13 11:20:18;;;;;;;;;;;24.30;53.60;;;;;;5113536;28;19911;-71
2022/09/13 11:22:52;;;;;;;;;;;24.30;53.60;;;;;;5095122;28;19904;-71
2022/09/13 11:25:23;;;;;;;;;;;24.40;53.40;;;;;;5113217;28;19908;-71
2022/09/13 11:28:06;;;;;;;;;;;24.50;53.40;;;;;;5113367;28;19916;-71
2022/09/13 11:30:37;;;;;;;;;;;24.50;53.10;;;;;;5113277;28;20205;-71
2022/09/13 11:33:02;;;;;;;;;;;24.50;53.00;;;;;;5113251;28;19955;-71
2022/09/13 11:35:43;;;;;;;;;;;24.60;52.60;;;;;;5113379;28;19954;-71
2022/09/13 11:38:22;;;;;;;;;;;24.60;52.80;;;;;;5113377;28;19911;-72
2022/09/13 11:40:57;;;;;;;;;;;24.70;52.40;;;;;;5113427;28;19953;-71
2022/09/13 11:43:25;;;;;;;;;;;24.70;52.40;;;;;;5095130;28;19904;-71
2022/09/13 11:46:02;;;;;;;;;;;24.80;52.40;;;;;;5115800;28;20350;-71
2022/09/13 11:48:45;;;;;;;;;;;24.80;52.20;;;;;;5116779;28;19903;-71
2022/09/13 11:51:20;;;;;;;;;;;24.90;52.20;;;;;;5116967;28;19956;-71
2022/09/13 11:53:52;;;;;;;;;;;24.90;52.00;;;;;;5116924;28;20385;-71
2022/09/13 11:56:33;;;;;;;;;;;25.00;51.90;;;;;;5116743;28;19908;-71
2022/09/13 11:59:17;;;;;;;;;;;25.00;51.20;;;;;;5116902;28;19957;-71
2022/09/13 12:01:49;;;;;;;;;;;25.10;51.30;;;;;;5116834;28;20378;-71
2022/09/13 12:04:15;;;;;;;;;;;25.20;51.10;;;;;;5116718;28;19943;-72
2022/09/13 12:06:43;;;;;;;;;;;25.20;50.70;;;;;;5116805;28;19911;-72
2022/09/13 12:09:15;;;;;;;;;;;25.30;50.50;;;;;;5116630;28;19907;-71
2022/09/13 12:11:47;;;;;;;;;;;25.30;50.60;;;;;;5116641;28;19904;-71
2022/09/13 12:14:15;;;;;;;;;;;25.40;50.80;;;;;;5098405;28;19934;-71
2022/09/13 12:16:56;;;;;;;;;;;25.40;50.10;;;;;;5098304;28;19910;-71
2022/09/13 12:19:24;;;;;;;;;;;25.50;49.80;;;;;;5098327;28;20347;-71
2022/09/13 12:21:51;;;;;;;;;;;25.60;50.00;;;;;;5116512;28;19911;-71
2022/09/13 12:24:34;;;;;;;;;;;25.70;50.20;;;;;;5116153;28;19903;-71
2022/09/13 12:27:07;;;;;;;;;;;25.90;50.40;;;;;;5116218;27;19950;-71
2022/09/13 12:29:44;;;;;;;;;;;26.20;49.90;;;;;;5097862;28;19953;-71
2022/09/13 12:32:09;;;;;;;;;;;26.40;49.30;;;;;;5097747;28;20332;-71
2022/09/13 12:34:41;;;;;;;;;;;26.60;48.70;;;;;;5097827;28;19904;-71
2022/09/13 12:37:07;;;;;;;;;;;26.90;48.00;;;;;;5116078;28;19903;-71
2022/09/13 12:39:49;;;;;;;;;;;27.10;47.70;;;;;;5116096;28;19910;-71
2022/09/13 12:42:35;;;;;;;;;;;27.20;47.30;;;;;;5097906;28;19910;-71
2022/09/13 12:45:20;;;;;;;;;;;27.40;47.00;;;;;;5116051;28;19904;-71
2022/09/13 12:48:09;;;;;;;;;;;27.60;46.20;;;;;;5115934;28;19904;-71
2022/09/13 12:50:35;;;;;;;;;;;27.70;45.70;;;;;;5102649;28;20286;-71
2022/09/13 12:53:01;;;;;;;;;;;27.80;45.60;;;;;;5115952;28;20341;-71
2022/09/13 12:55:39;;;;;;;;;;;27.90;45.90;;;;;;5119870;27;19961;-71
2022/09/13 12:58:05;;;;;;;;;;;28.00;45.70;;;;;;5135589;27;19916;-71
2022/09/13 13:00:41;;;;;;;;;;;28.10;45.50;;;;;;5136167;27;19962;-71
2022/09/13 13:03:12;;;;;;;;;;;28.20;45.40;;;;;;5136295;27;19903;-71
2022/09/13 13:05:40;;;;;;;;;;;28.30;45.00;;;;;;5136135;27;19967;-71
2022/09/13 13:08:18;;;;;;;;;;;28.40;45.30;;;;;;5136076;27;19903;-72
2022/09/13 13:10:45;;;;;;;;;;;28.40;45.10;;;;;;5136023;27;19914;-71
2022/09/13 13:13:10;;;;;;;;;;;28.50;44.40;;;;;;5135940;27;19903;-71
2022/09/13 13:15:36;;;;;;;;;;;28.60;44.10;;;;;;5135996;27;20004;-71
2022/09/13 13:18:21;;;;;;;;;;;28.70;44.20;;;;;;5136236;27;19911;-71
2022/09/13 13:21:03;;;;;;;;;;;28.70;43.90;;;;;;5135935;27;20420;-71
2022/09/13 13:23:30;;;;;;;;;;;28.80;44.10;;;;;;5124296;27;19908;-71
2022/09/13 13:25:59;;;;;;;;;;;28.80;43.80;;;;;;5115110;28;19938;-71
2022/09/13 13:28:43;;;;;;;;;;;28.80;44.00;;;;;;5115092;27;19907;-71
2022/09/13 13:31:10;;;;;;;;;;;28.90;44.10;;;;;;5114981;28;19911;-71
2022/09/13 13:33:46;;;;;;;;;;;29.00;43.90;;;;;;5114569;28;19916;-71
2022/09/13 13:36:22;;;;;;;;;;;29.10;43.60;;;;;;5114981;28;20379;-71
2022/09/13 13:38:51;;;;;;;;;;;29.10;43.10;;;;;;5096652;28;19910;-71
2022/09/13 13:41:32;;;;;;;;;;;29.00;43.50;;;;;;5114803;28;19910;-72
2022/09/13 13:44:01;;;;;;;;;;;29.00;43.00;;;;;;5114852;28;19910;-71
2022/09/13 13:46:30;;;;;;;;;;;28.90;42.90;;;;;;5114784;28;19904;-71
2022/09/13 13:49:16;;;;;;;;;;;28.80;43.00;;;;;;5114635;28;19907;-71
2022/09/13 13:51:42;;;;;;;;;;;28.60;43.40;;;;;;5114404;28;19904;-71
2022/09/13 13:54:26;;;;;;;;;;;28.50;43.90;;;;;;5096275;28;19911;-71
2022/09/13 13:56:52;;;;;;;;;;;28.50;44.20;;;;;;5114559;28;20357;-71
2022/09/13 13:59:30;;;;;;;;;;;28.40;44.70;;;;;;5114729;27;19933;-71
2022/09/13 14:01:58;;;;;;;;;;;28.30;45.00;;;;;;5114521;28;19911;-71
2022/09/13 14:04:36;;;;;;;;;;;28.30;45.40;;;;;;5114375;28;19972;-71
2022/09/13 14:07:16;;;;;;;;;;;28.40;45.60;;;;;;5096129;28;19904;-71
2022/09/13 14:10:06;;;;;;;;;;;28.50;45.50;;;;;;5114315;28;20385;-71
2022/09/13 14:12:43;;;;;;;;;;;28.50;45.40;;;;;;5096008;28;19903;-71
2022/09/13 14:15:16;;;;;;;;;;;28.50;45.10;;;;;;5096193;28;20002;-71
2022/09/13 14:17:50;;;;;;;;;;;28.50;45.00;;;;;;5096006;28;19994;-71
2022/09/13 14:20:17;;;;;;;;;;;28.50;44.90;;;;;;5114208;28;19942;-71
2022/09/13 14:22:43;;;;;;;;;;;28.50;45.00;;;;;;5095846;28;19903;-71
2022/09/13 14:25:27;;;;;;;;;;;28.50;45.20;;;;;;5095742;28;20352;-71
2022/09/13 14:27:55;;;;;;;;;;;28.50;45.30;;;;;;5114078;28;19910;-71
2022/09/13 14:30:36;;;;;;;;;;;28.50;45.30;;;;;;5113930;28;20081;-71
2022/09/13 14:33:04;;;;;;;;;;;28.50;44.90;;;;;;5092162;28;19916;-71